Time;durP1;ratioP1;P1;durP2;ratioP2;P2;SDS_P1;SDS_P2;PMS_P1;PMS_P2;Temp;Humidity;BMP_temperature;BMP_pressure;BME280_temperature;BME280_humidity;BME280_pressure;Samples;Min_cycle;Max_cycle;Signal;HPM_P1;HPM_P2
2022/07/17 06:01:30;;;;;;;16.10;15.30;;;23.20;92.80;;;;;;5554568;23;20930;-68
2022/07/17 06:03:57;;;;;;;15.80;14.90;;;23.20;92.30;;;;;;4958764;28;20468;-69
2022/07/17 06:06:23;;;;;;;16.73;15.93;;;23.70;91.20;;;;;;4956208;28;20440;-69
2022/07/17 06:08:50;;;;;;;16.53;15.53;;;24.40;89.00;;;;;;4967585;28;20448;-68
2022/07/17 06:11:17;;;;;;;17.23;16.33;;;24.80;85.40;;;;;;4969907;28;20539;-69
2022/07/17 06:13:44;;;;;;;16.77;15.90;;;24.90;83.80;;;;;;4970143;28;20448;-69
2022/07/17 06:16:10;;;;;;;16.60;15.70;;;25.30;82.00;;;;;;4971417;28;20483;-70
2022/07/17 06:18:38;;;;;;;17.73;16.73;;;25.80;79.90;;;;;;4971367;28;20458;-69
2022/07/17 06:21:05;;;;;;;17.13;16.20;;;26.10;77.70;;;;;;4971284;28;20460;-70
2022/07/17 06:23:33;;;;;;;15.60;14.70;;;26.00;77.40;;;;;;4970379;28;20861;-69
2022/07/17 06:25:59;;;;;;;16.13;15.23;;;26.00;76.90;;;;;;4971099;28;20820;-69
2022/07/17 06:28:26;;;;;;;16.10;15.40;;;26.50;74.80;;;;;;4971307;28;20459;-70
2022/07/17 06:30:53;;;;;;;16.43;15.60;;;25.90;76.10;;;;;;4970959;28;20470;-68
2022/07/17 06:33:19;;;;;;;16.77;15.67;;;26.40;74.40;;;;;;4970895;28;20459;-68
2022/07/17 06:35:47;;;;;;;16.30;15.60;;;26.20;75.50;;;;;;4965612;28;20460;-70
2022/07/17 06:38:14;;;;;;;16.33;15.53;;;26.70;73.90;;;;;;4955570;28;20452;-70
2022/07/17 06:40:41;;;;;;;16.13;15.33;;;27.10;72.70;;;;;;4971272;28;20866;-69
2022/07/17 06:43:08;;;;;;;16.57;15.70;;;27.00;72.10;;;;;;4967672;28;20507;-70
2022/07/17 06:45:34;;;;;;;15.87;15.07;;;26.90;70.40;;;;;;4952229;29;20449;-69
2022/07/17 06:48:01;;;;;;;16.87;15.93;;;26.90;70.30;;;;;;4952354;29;20456;-70
2022/07/17 06:50:28;;;;;;;16.07;15.30;;;27.30;69.30;;;;;;4952559;29;20460;-70
2022/07/17 06:52:58;;;;;;;16.30;15.50;;;27.20;68.60;;;;;;4966465;28;20494;-69
2022/07/17 06:55:24;;;;;;;15.30;14.50;;;27.50;67.60;;;;;;4971891;28;21025;-69
2022/07/17 06:57:51;;;;;;;17.20;16.03;;;27.70;65.50;;;;;;4971735;28;20550;-68
2022/07/17 07:00:18;;;;;;;16.17;15.20;;;27.80;65.40;;;;;;4971610;28;20479;-68
2022/07/17 07:02:45;;;;;;;14.93;14.13;;;28.10;64.60;;;;;;4971617;28;20555;-70
2022/07/17 07:05:11;;;;;;;15.20;14.50;;;28.80;63.30;;;;;;4972081;28;20443;-68
2022/07/17 07:07:38;;;;;;;15.20;14.40;;;28.80;62.40;;;;;;4971009;28;20471;-69
2022/07/17 07:10:07;;;;;;;16.70;15.33;;;28.50;63.20;;;;;;4963303;28;20464;-69
2022/07/17 07:12:34;;;;;;;16.00;15.17;;;28.90;62.20;;;;;;4952291;29;20452;-69
2022/07/17 07:15:01;;;;;;;14.13;13.53;;;29.20;61.00;;;;;;4952949;28;20466;-68
2022/07/17 07:17:27;;;;;;;15.50;14.90;;;29.70;60.00;;;;;;4961072;28;20491;-69
2022/07/17 07:19:54;;;;;;;15.17;14.47;;;29.60;60.00;;;;;;4962837;28;20535;-69
2022/07/17 07:22:21;;;;;;;14.50;13.90;;;29.90;58.10;;;;;;4957556;28;20958;-69
2022/07/17 07:24:47;;;;;;;14.90;14.30;;;30.40;57.30;;;;;;4971307;28;20456;-69
2022/07/17 07:27:16;;;;;;;15.23;14.53;;;30.40;56.40;;;;;;4974245;28;20451;-71
2022/07/17 07:29:42;;;;;;;14.90;14.23;;;30.60;56.50;;;;;;4974152;28;20448;-67
2022/07/17 07:32:09;;;;;;;14.77;14.13;;;31.00;54.60;;;;;;4967624;28;20997;-69
2022/07/17 07:34:36;;;;;;;14.30;13.60;;;31.00;54.10;;;;;;4962944;28;20841;-69
2022/07/17 07:37:02;;;;;;;14.50;13.80;;;31.00;53.60;;;;;;4968844;28;20491;-69
2022/07/17 07:39:29;;;;;;;14.53;13.70;;;31.00;53.00;;;;;;4969970;28;20923;-70
2022/07/17 07:41:56;;;;;;;14.70;14.00;;;31.10;52.90;;;;;;4967079;28;20448;-70
2022/07/17 07:44:24;;;;;;;14.37;13.77;;;31.10;51.90;;;;;;4962367;28;20448;-71
2022/07/17 07:46:50;;;;;;;14.63;14.00;;;31.10;51.90;;;;;;4964700;28;20877;-70
2022/07/17 07:49:17;;;;;;;14.83;14.00;;;31.80;51.50;;;;;;4966295;28;20674;-70
2022/07/17 07:51:44;;;;;;;14.10;13.50;;;31.70;50.60;;;;;;4963272;28;20471;-68
2022/07/17 07:54:11;;;;;;;14.17;13.57;;;32.10;49.90;;;;;;4964122;28;20959;-68
2022/07/17 07:56:38;;;;;;;13.87;13.30;;;31.90;49.80;;;;;;4965005;28;20492;-69
2022/07/17 07:59:05;;;;;;;14.10;13.50;;;32.30;48.80;;;;;;4964365;28;20817;-68
2022/07/17 08:01:33;;;;;;;13.73;13.20;;;32.40;48.00;;;;;;4961880;28;20511;-69
2022/07/17 08:04:00;;;;;;;13.87;13.30;;;32.20;48.40;;;;;;4963621;28;20464;-69
2022/07/17 08:06:26;;;;;;;14.03;13.43;;;32.10;48.50;;;;;;4963952;28;20929;-68
2022/07/17 08:08:53;;;;;;;14.17;13.67;;;32.30;48.20;;;;;;4968512;28;20510;-69
2022/07/17 08:11:20;;;;;;;12.70;12.10;;;31.80;48.80;;;;;;4972425;28;20448;-69
2022/07/17 08:13:47;;;;;;;13.20;12.70;;;31.10;49.70;;;;;;4973351;28;20518;-68
2022/07/17 08:16:13;;;;;;;13.60;13.10;;;31.30;50.30;;;;;;4973433;28;20451;-68
2022/07/17 08:18:41;;;;;;;13.70;13.10;;;30.50;49.80;;;;;;4966222;28;20835;-68
2022/07/17 08:21:08;;;;;;;13.03;12.53;;;30.40;50.40;;;;;;4970047;28;20456;-68
2022/07/17 08:23:35;;;;;;;14.07;13.47;;;30.60;49.80;;;;;;4955488;28;20456;-68
2022/07/17 08:26:02;;;;;;;13.53;12.93;;;30.80;48.50;;;;;;4957543;28;20452;-68
2022/07/17 08:28:29;;;;;;;14.70;14.10;;;31.30;48.00;;;;;;4973066;28;20459;-68
2022/07/17 08:30:55;;;;;;;14.30;13.70;;;31.80;48.00;;;;;;4973319;28;20514;-68
2022/07/17 08:33:22;;;;;;;15.47;14.77;;;32.50;47.40;;;;;;4973121;28;20459;-68
2022/07/17 08:35:50;;;;;;;13.97;13.27;;;33.00;46.50;;;;;;4959569;28;20448;-68
2022/07/17 08:38:17;;;;;;;13.23;12.63;;;33.20;46.20;;;;;;4953838;29;20456;-67
2022/07/17 08:40:47;;;;;;;13.97;13.37;;;32.20;46.50;;;;;;4965046;28;20455;-69
2022/07/17 08:43:14;;;;;;;14.30;13.80;;;32.30;46.60;;;;;;4972739;28;20459;-67
2022/07/17 08:45:41;;;;;;;15.30;14.40;;;33.10;45.80;;;;;;4972804;28;20933;-68
2022/07/17 08:48:12;;;;;;;14.73;14.03;;;33.90;44.60;;;;;;4973013;28;20602;-68
2022/07/17 08:50:39;;;;;;;14.30;13.80;;;34.00;43.60;;;;;;4973089;28;20451;-68
2022/07/17 08:53:07;;;;;;;14.80;14.20;;;34.10;43.30;;;;;;4957657;28;20457;-69
2022/07/17 08:55:34;;;;;;;14.80;14.30;;;34.30;43.30;;;;;;4953519;29;20465;-69
2022/07/17 08:58:01;;;;;;;14.30;13.70;;;34.20;43.90;;;;;;4953374;29;20947;-69
2022/07/17 09:00:29;;;;;;;14.50;14.00;;;34.30;43.10;;;;;;4952932;28;20994;-68
2022/07/17 09:02:58;;;;;;;14.97;14.37;;;34.90;42.20;;;;;;4971030;28;20467;-69
2022/07/17 09:05:27;;;;;;;14.80;14.20;;;35.50;40.80;;;;;;4972277;28;20980;-68
2022/07/17 09:07:54;;;;;;;14.20;13.70;;;36.20;39.30;;;;;;4968394;28;20549;-68
2022/07/17 09:10:33;;;;;;;14.90;14.03;;;35.40;38.20;;;;;;4970373;28;20455;-67
2022/07/17 09:13:01;;;;;;;14.17;13.67;;;34.30;38.90;;;;;;4959208;28;20508;-69
2022/07/17 09:15:28;;;;;;;13.70;13.20;;;34.40;40.20;;;;;;4962632;28;20981;-68
2022/07/17 09:17:57;;;;;;;13.50;13.00;;;34.10;40.40;;;;;;4962279;28;20440;-68
2022/07/17 09:20:24;;;;;;;13.50;13.00;;;33.50;40.40;;;;;;4962852;28;20855;-68
2022/07/17 09:22:57;;;;;;;14.03;13.43;;;33.60;39.30;;;;;;4960140;28;20466;-68
2022/07/17 09:25:39;;;;;;;13.27;12.67;;;33.80;39.10;;;;;;4962168;28;20452;-69
2022/07/17 09:28:08;;;;;;;14.30;13.70;;;34.20;38.50;;;;;;4961681;28;20565;-68
2022/07/17 09:30:40;;;;;;;14.07;13.47;;;33.20;38.70;;;;;;4961273;28;20459;-69
2022/07/17 09:33:09;;;;;;;12.07;11.63;;;33.30;40.10;;;;;;4960685;28;20456;-69
2022/07/17 09:35:35;;;;;;;13.03;12.33;;;33.50;40.50;;;;;;4964353;28;20450;-68
2022/07/17 09:38:02;;;;;;;13.70;13.20;;;33.50;40.70;;;;;;4961131;28;20444;-68
2022/07/17 09:43:14;;;;;;;14.40;13.80;;;32.70;39.90;;;;;;4961548;28;20565;-69
2022/07/17 09:45:43;;;;;;;13.50;13.00;;;32.70;40.70;;;;;;4962004;28;20959;-69
2022/07/17 09:48:10;;;;;;;14.27;13.77;;;33.50;40.50;;;;;;4964762;28;20492;-68
2022/07/17 09:50:38;;;;;;;14.77;14.17;;;34.50;38.90;;;;;;4964104;28;20547;-68
2022/07/17 09:53:08;;;;;;;14.60;14.10;;;35.10;38.10;;;;;;4960238;28;20453;-66
2022/07/17 09:55:34;;;;;;;13.90;13.20;;;35.00;38.50;;;;;;4961131;28;20452;-69
2022/07/17 09:58:03;;;;;;;14.27;13.67;;;34.50;35.80;;;;;;4960640;28;20444;-67
2022/07/17 10:00:32;;;;;;;14.10;13.50;;;34.60;35.60;;;;;;4960203;28;20495;-68
2022/07/17 10:03:00;;;;;;;13.37;12.87;;;34.70;35.00;;;;;;4965440;28;20451;-69
2022/07/17 10:05:27;;;;;;;13.70;13.20;;;35.50;34.30;;;;;;4960057;28;20934;-70
2022/07/17 10:07:54;;;;;;;12.90;12.40;;;35.50;33.90;;;;;;4956795;28;20480;-70
2022/07/17 10:10:21;;;;;;;13.93;13.43;;;35.20;35.30;;;;;;4961537;28;20452;-70
2022/07/17 10:12:50;;;;;;;13.80;13.30;;;35.80;34.90;;;;;;4959888;28;20503;-71
2022/07/17 10:15:19;;;;;;;14.47;13.87;;;36.80;34.60;;;;;;4961216;28;20459;-71
2022/07/17 10:17:48;;;;;;;14.47;13.97;;;37.10;33.90;;;;;;4960207;28;20445;-70
2022/07/17 10:20:25;;;;;;;14.97;14.30;;;38.20;32.90;;;;;;4962817;28;20535;-69
2022/07/17 10:22:52;;;;;;;13.80;13.30;;;38.20;48.20;;;;;;4959283;28;20937;-70
2022/07/17 10:25:19;;;;;;;14.63;13.93;;;37.70;29.30;;;;;;4961150;28;20507;-69
2022/07/17 10:27:53;;;;;;;13.80;13.30;;;36.80;29.60;;;;;;4959739;28;20842;-69
2022/07/17 10:30:24;;;;;;;14.27;13.77;;;35.30;31.20;;;;;;4961213;28;20455;-70
2022/07/17 10:32:58;;;;;;;14.10;13.60;;;35.50;29.80;;;;;;4961164;28;20444;-70
2022/07/17 10:35:25;;;;;;;14.53;14.03;;;35.00;31.40;;;;;;4960606;28;20504;-70
2022/07/17 10:37:53;;;;;;;13.40;12.90;;;34.80;31.40;;;;;;4960970;28;20650;-69
2022/07/17 10:40:21;;;;;;;13.83;13.33;;;34.50;32.10;;;;;;4960905;28;20984;-70
2022/07/17 10:42:53;;;;;;;13.77;13.27;;;34.20;32.10;;;;;;4959974;28;20444;-70
2022/07/17 10:45:23;;;;;;;14.13;13.63;;;34.50;32.70;;;;;;4960660;28;20478;-69
2022/07/17 10:47:52;;;;;;;15.07;14.10;;;34.80;32.00;;;;;;4960113;28;20535;-69
2022/07/17 10:50:23;;;;;;;13.30;12.80;;;34.40;32.60;;;;;;4961214;28;20460;-70
2022/07/17 10:53:01;;;;;;;13.10;12.40;;;35.40;32.00;;;;;;4960172;28;20449;-69
2022/07/17 10:55:28;;;;;;;14.07;13.47;;;35.80;31.00;;;;;;4960159;28;20452;-70
2022/07/17 10:57:56;;;;;;;14.63;14.13;;;35.50;30.80;;;;;;4964754;28;20483;-68
2022/07/17 11:00:23;;;;;;;14.83;14.20;;;35.60;31.40;;;;;;4963472;28;20468;-68
2022/07/17 11:02:49;;;;;;;13.83;13.33;;;35.30;30.60;;;;;;4963766;28;20483;-68
2022/07/17 11:05:17;;;;;;;14.60;14.10;;;35.40;30.90;;;;;;4967229;28;20448;-68
2022/07/17 11:07:54;;;;;;;14.73;14.13;;;35.20;29.90;;;;;;4975392;28;20490;-70
2022/07/17 11:10:21;;;;;;;13.90;13.30;;;34.70;31.50;;;;;;4968796;28;20495;-69
2022/07/17 11:12:49;;;;;;;13.90;13.40;;;34.20;32.50;;;;;;4963453;28;20807;-69
2022/07/17 11:15:16;;;;;;;12.83;12.43;;;34.50;33.00;;;;;;4964981;28;20546;-69
2022/07/17 11:17:47;;;;;;;14.33;13.83;;;35.20;32.70;;;;;;4965101;28;20455;-70
2022/07/17 11:20:15;;;;;;;13.93;13.20;;;36.50;30.90;;;;;;4965439;28;20451;-70
2022/07/17 11:22:42;;;;;;;14.13;13.53;;;36.90;29.80;;;;;;4964786;28;20456;-70
2022/07/17 11:25:11;;;;;;;13.67;13.17;;;37.20;29.70;;;;;;4963401;28;20452;-69
2022/07/17 11:27:39;;;;;;;14.23;13.50;;;37.80;29.90;;;;;;4964391;28;20575;-70
2022/07/17 11:30:10;;;;;;;14.70;13.90;;;38.30;29.00;;;;;;4965376;28;20846;-70
2022/07/17 11:32:39;;;;;;;14.07;13.57;;;37.60;29.30;;;;;;4957853;28;20445;-70
2022/07/17 11:35:15;;;;;;;13.97;13.50;;;37.00;29.90;;;;;;4955890;29;20507;-71
2022/07/17 11:37:42;;;;;;;14.37;13.70;;;36.60;30.10;;;;;;4956125;29;20451;-70
2022/07/17 11:40:11;;;;;;;13.80;13.20;;;37.10;29.90;;;;;;4962684;28;20866;-70
2022/07/17 11:42:38;;;;;;;14.00;13.40;;;36.40;30.10;;;;;;4963693;28;20447;-70
2022/07/17 11:45:06;;;;;;;14.40;13.90;;;36.90;31.20;;;;;;4964882;28;20448;-70
2022/07/17 11:47:33;;;;;;;14.03;13.53;;;37.20;30.10;;;;;;4965531;28;20904;-70
2022/07/17 11:50:09;;;;;;;15.30;14.70;;;35.80;30.90;;;;;;4963713;28;20506;-70
2022/07/17 11:52:44;;;;;;;14.27;13.67;;;36.10;31.40;;;;;;4964755;28;20458;-69
2022/07/17 11:55:13;;;;;;;12.90;12.50;;;35.40;31.10;;;;;;4964709;28;20444;-69
2022/07/17 11:57:45;;;;;;;13.90;13.33;;;35.20;30.70;;;;;;4968763;28;20569;-69
2022/07/17 12:00:14;;;;;;;12.80;12.40;;;35.00;31.20;;;;;;4974921;28;20558;-69
2022/07/17 12:02:40;;;;;;;13.50;12.83;;;34.70;31.20;;;;;;4974797;28;20487;-69
2022/07/17 12:05:08;;;;;;;13.50;12.67;;;34.60;32.10;;;;;;4974683;28;20459;-69
2022/07/17 12:07:45;;;;;;;14.20;13.70;;;35.40;32.20;;;;;;4974027;28;20825;-70
2022/07/17 12:10:18;;;;;;;13.53;12.90;;;36.60;29.90;;;;;;4974570;28;20466;-70
2022/07/17 12:12:57;;;;;;;14.67;14.17;;;36.80;30.00;;;;;;4974681;28;20479;-69
2022/07/17 12:15:35;;;;;;;13.37;12.87;;;37.80;29.80;;;;;;4974294;28;20574;-69
2022/07/17 12:18:03;;;;;;;14.00;13.50;;;38.30;28.90;;;;;;4974419;28;20538;-70
2022/07/17 12:20:41;;;;;;;13.40;12.97;;;38.90;27.80;;;;;;4974328;28;20452;-69
2022/07/17 12:23:08;;;;;;;14.20;13.70;;;37.80;27.70;;;;;;4973915;28;20968;-70
2022/07/17 12:25:36;;;;;;;13.70;13.20;;;37.40;27.90;;;;;;4973616;28;20444;-70
2022/07/17 12:28:03;;;;;;;14.13;13.63;;;37.20;28.80;;;;;;4966883;28;21177;-70
2022/07/17 12:30:32;;;;;;;14.13;13.57;;;37.80;28.60;;;;;;4961059;28;20452;-69
2022/07/17 12:32:59;;;;;;;13.20;12.80;;;37.00;28.90;;;;;;4970582;28;20455;-69
2022/07/17 12:35:25;;;;;;;14.00;13.30;;;36.80;29.10;;;;;;4972872;28;20950;-70
2022/07/17 12:37:52;;;;;;;14.10;13.60;;;37.40;29.10;;;;;;4961602;28;20486;-71
2022/07/17 12:40:19;;;;;;;13.40;13.00;;;36.20;29.30;;;;;;4958514;28;20492;-70
2022/07/17 12:42:47;;;;;;;13.20;12.70;;;37.20;28.80;;;;;;4954660;29;20492;-71
2022/07/17 12:45:13;;;;;;;13.43;13.03;;;37.50;28.40;;;;;;4965288;28;20459;-71
2022/07/17 12:47:40;;;;;;;13.90;13.40;;;37.90;27.70;;;;;;4973437;28;20452;-71
2022/07/17 12:50:09;;;;;;;14.23;13.73;;;38.30;27.10;;;;;;4973417;28;20543;-69
2022/07/17 12:52:36;;;;;;;14.30;13.70;;;39.00;27.30;;;;;;4972921;28;20833;-71
2022/07/17 12:55:03;;;;;;;14.03;13.50;;;39.00;27.10;;;;;;4973342;28;20454;-71
2022/07/17 12:57:30;;;;;;;14.47;13.97;;;38.90;27.50;;;;;;4973736;28;20823;-71
2022/07/17 12:59:58;;;;;;;13.90;13.40;;;39.30;26.80;;;;;;4973257;28;20986;-70
2022/07/17 13:02:24;;;;;;;14.30;13.80;;;39.30;26.90;;;;;;4961003;28;20480;-70
2022/07/17 13:04:51;;;;;;;14.67;14.00;;;38.20;27.60;;;;;;4953319;29;20485;-70
2022/07/17 13:07:18;;;;;;;13.50;13.00;;;38.00;27.90;;;;;;4953829;29;20810;-70
2022/07/17 13:09:44;;;;;;;13.83;13.33;;;38.60;27.60;;;;;;4960257;28;21003;-70
2022/07/17 13:12:12;;;;;;;13.00;12.60;;;38.40;27.70;;;;;;4964730;28;20551;-70
2022/07/17 13:14:39;;;;;;;13.73;13.00;;;37.90;27.90;;;;;;4971845;28;20456;-70
2022/07/17 13:17:07;;;;;;;13.50;13.00;;;37.00;28.10;;;;;;4971895;28;20448;-70
2022/07/17 13:19:33;;;;;;;13.83;13.33;;;36.60;28.40;;;;;;4970874;28;20805;-68
2022/07/17 13:22:02;;;;;;;12.90;12.50;;;36.90;28.80;;;;;;4971822;28;21012;-69
2022/07/17 13:24:30;;;;;;;13.47;12.97;;;37.30;27.60;;;;;;4971500;28;20462;-68
2022/07/17 13:26:57;;;;;;;13.43;12.93;;;37.50;27.00;;;;;;4952569;28;20467;-68
2022/07/17 13:29:26;;;;;;;14.20;13.60;;;37.40;27.10;;;;;;4952696;28;20575;-70
2022/07/17 13:31:53;;;;;;;13.40;12.80;;;36.60;28.20;;;;;;4991195;28;20454;-70
2022/07/17 13:34:21;;;;;;;15.20;14.30;;;35.40;28.80;;;;;;4991467;28;20454;-69
2022/07/17 13:36:47;;;;;;;13.53;13.03;;;34.80;28.60;;;;;;4958118;28;20453;-71
2022/07/17 13:39:14;;;;;;;13.30;12.80;;;34.70;28.90;;;;;;4967658;28;20459;-70
2022/07/17 13:41:41;;;;;;;12.90;12.40;;;35.40;28.10;;;;;;4965752;28;20451;-70
2022/07/17 13:44:09;;;;;;;13.10;12.70;;;35.50;28.30;;;;;;4971146;28;20454;-71
2022/07/17 13:46:36;;;;;;;13.63;13.13;;;35.30;28.60;;;;;;4963063;28;20798;-69
2022/07/17 13:49:03;;;;;;;14.67;13.83;;;35.90;28.50;;;;;;4960163;28;20613;-70
2022/07/17 13:51:32;;;;;;;12.90;12.50;;;35.80;28.20;;;;;;4961794;28;20549;-69
2022/07/17 13:53:58;;;;;;;13.37;12.57;;;36.00;27.60;;;;;;4965528;28;20456;-68
2022/07/17 13:56:25;;;;;;;13.17;12.67;;;36.50;27.00;;;;;;4962154;28;20448;-69
2022/07/17 13:58:52;;;;;;;11.73;11.33;;;35.80;26.80;;;;;;4961542;28;20492;-70
2022/07/17 14:01:19;;;;;;;13.20;12.80;;;35.50;27.10;;;;;;4959924;28;20483;-70
2022/07/17 14:03:46;;;;;;;13.00;12.50;;;35.50;27.60;;;;;;4961454;28;20888;-68
2022/07/17 14:06:13;;;;;;;12.63;12.20;;;35.80;27.30;;;;;;4961504;28;20508;-69
2022/07/17 14:08:42;;;;;;;13.40;13.00;;;36.30;27.20;;;;;;4961072;28;20929;-70
2022/07/17 14:11:11;;;;;;;13.27;12.77;;;36.50;26.30;;;;;;4963942;28;20933;-68
2022/07/17 14:13:38;;;;;;;13.70;13.20;;;36.00;26.60;;;;;;4964381;28;20539;-68
2022/07/17 14:16:05;;;;;;;13.10;12.60;;;35.50;26.80;;;;;;4961449;28;20452;-68
2022/07/17 14:18:31;;;;;;;13.07;12.57;;;35.20;27.10;;;;;;4961076;28;20467;-68
2022/07/17 14:20:58;;;;;;;13.37;12.87;;;34.90;27.60;;;;;;4959842;28;20935;-68
2022/07/17 14:23:25;;;;;;;12.67;12.27;;;34.70;27.80;;;;;;4962336;28;20452;-69
2022/07/17 14:25:53;;;;;;;14.00;13.37;;;34.70;28.30;;;;;;4961309;28;20484;-68
2022/07/17 14:28:19;;;;;;;13.53;13.03;;;34.50;28.20;;;;;;4960431;28;20456;-69
2022/07/17 14:30:46;;;;;;;12.73;12.33;;;34.20;28.10;;;;;;4961073;28;20448;-69
2022/07/17 14:33:13;;;;;;;13.27;12.67;;;34.10;28.50;;;;;;4961179;28;20954;-69
2022/07/17 14:35:39;;;;;;;13.00;12.50;;;33.50;28.00;;;;;;4960096;28;20464;-69
2022/07/17 14:38:06;;;;;;;12.77;12.27;;;33.40;28.00;;;;;;4962887;28;20852;-70
2022/07/17 14:40:33;;;;;;;13.00;12.50;;;33.50;27.60;;;;;;4965366;28;20451;-69
2022/07/17 14:43:01;;;;;;;12.67;12.17;;;34.00;27.20;;;;;;4964509;28;20452;-71
2022/07/17 14:45:28;;;;;;;12.70;12.30;;;34.90;26.40;;;;;;4962295;28;20544;-70
2022/07/17 14:47:55;;;;;;;13.53;13.03;;;35.00;26.80;;;;;;4959995;28;21014;-70
2022/07/17 14:50:22;;;;;;;13.20;12.70;;;34.30;26.90;;;;;;4961858;28;20921;-69
2022/07/17 14:52:48;;;;;;;12.93;12.53;;;33.50;27.40;;;;;;4960611;28;20508;-69
2022/07/17 14:55:15;;;;;;;13.53;12.97;;;33.10;27.90;;;;;;4962623;28;20448;-69
2022/07/17 14:57:42;;;;;;;12.40;11.90;;;32.60;29.20;;;;;;4960005;28;20449;-69
2022/07/17 15:00:11;;;;;;;13.30;12.70;;;32.50;29.40;;;;;;4963489;28;20467;-70
2022/07/17 15:06:06;;;;;;;12.40;11.90;;;32.40;29.40;;;;;;4951216;28;20957;-68
2022/07/17 15:08:32;;;;;;;13.90;12.90;;;32.80;29.30;;;;;;4959546;28;20547;-68
2022/07/17 15:10:59;;;;;;;12.77;12.17;;;32.50;29.00;;;;;;4960630;28;20455;-69
2022/07/17 15:13:26;;;;;;;12.57;12.17;;;32.00;30.00;;;;;;4961416;28;20456;-69
2022/07/17 15:15:54;;;;;;;13.10;12.60;;;31.60;30.40;;;;;;4959754;28;20487;-69
2022/07/17 15:18:21;;;;;;;12.10;11.60;;;31.30;30.60;;;;;;4961176;28;20451;-69
2022/07/17 15:20:48;;;;;;;13.73;13.10;;;31.00;30.80;;;;;;4963471;28;20444;-69
2022/07/17 15:23:16;;;;;;;13.70;13.10;;;30.30;31.60;;;;;;4965520;28;20457;-69
2022/07/17 15:25:43;;;;;;;13.07;12.57;;;30.20;32.30;;;;;;4962692;28;20449;-69
2022/07/17 15:28:10;;;;;;;13.13;12.63;;;30.20;32.20;;;;;;4960882;28;20448;-69
2022/07/17 15:30:36;;;;;;;12.20;11.80;;;30.10;32.40;;;;;;4961026;28;20476;-70
2022/07/17 15:33:04;;;;;;;12.60;12.00;;;30.10;31.90;;;;;;4959263;28;20445;-69
2022/07/17 15:35:31;;;;;;;12.60;12.10;;;30.00;31.80;;;;;;4960558;28;20964;-69
2022/07/17 15:37:59;;;;;;;12.60;12.10;;;29.90;32.20;;;;;;4964764;28;20868;-69
2022/07/17 15:40:26;;;;;;;12.50;12.00;;;29.70;31.80;;;;;;4961613;28;20467;-69
2022/07/17 15:42:52;;;;;;;12.90;12.40;;;29.70;32.10;;;;;;4957271;28;20453;-68
2022/07/17 15:45:20;;;;;;;12.30;11.90;;;29.70;32.30;;;;;;4974797;28;20474;-68
2022/07/17 15:47:47;;;;;;;12.77;12.27;;;29.70;32.60;;;;;;4974765;28;20761;-68
2022/07/17 15:50:15;;;;;;;12.57;12.07;;;29.70;32.50;;;;;;4974615;28;20494;-68
2022/07/17 15:52:42;;;;;;;11.80;11.30;;;29.80;32.90;;;;;;4974857;28;20479;-69
2022/07/17 15:55:10;;;;;;;12.40;11.90;;;29.70;34.00;;;;;;4975089;28;20443;-68
2022/07/17 15:57:36;;;;;;;12.60;12.10;;;29.70;34.10;;;;;;4974707;28;20842;-69
2022/07/17 16:00:06;;;;;;;12.10;11.60;;;29.70;34.50;;;;;;4974599;28;20467;-69
2022/07/17 16:02:33;;;;;;;12.70;12.03;;;29.70;34.50;;;;;;4966263;28;20590;-68
2022/07/17 16:04:59;;;;;;;12.00;11.50;;;29.60;35.10;;;;;;4974504;28;20818;-68
2022/07/17 16:07:27;;;;;;;12.23;11.73;;;29.70;35.40;;;;;;4974364;28;20860;-69
2022/07/17 16:09:54;;;;;;;12.30;11.80;;;29.80;35.40;;;;;;4973971;28;20619;-68
2022/07/17 16:12:21;;;;;;;12.00;11.50;;;29.70;35.60;;;;;;4957396;28;20818;-69
2022/07/17 16:14:48;;;;;;;12.80;12.07;;;29.80;35.20;;;;;;4954136;29;20799;-69
2022/07/17 16:17:15;;;;;;;12.83;12.40;;;29.70;35.40;;;;;;4954285;29;20461;-69
2022/07/17 16:19:42;;;;;;;11.73;11.33;;;29.70;35.40;;;;;;4954303;29;20850;-69
2022/07/17 16:22:09;;;;;;;12.43;11.93;;;29.60;35.60;;;;;;4954347;29;20451;-69
2022/07/17 16:24:37;;;;;;;12.50;12.10;;;29.60;35.60;;;;;;4954145;29;20815;-69
2022/07/17 16:27:04;;;;;;;12.87;12.37;;;29.60;34.90;;;;;;4953789;29;20468;-68
2022/07/17 16:29:31;;;;;;;12.47;11.97;;;29.50;34.20;;;;;;4953812;29;20484;-69
2022/07/17 16:31:57;;;;;;;12.60;12.20;;;29.40;34.60;;;;;;4953895;29;20464;-69
2022/07/17 16:34:24;;;;;;;11.83;11.43;;;29.30;34.20;;;;;;4953885;29;20547;-69
2022/07/17 16:36:52;;;;;;;11.53;11.13;;;29.20;34.40;;;;;;4953901;29;20950;-69
2022/07/17 16:39:19;;;;;;;13.20;12.00;;;29.20;35.10;;;;;;4953725;29;20947;-69
2022/07/17 16:41:47;;;;;;;12.13;11.73;;;29.20;35.60;;;;;;4953993;29;20473;-69
2022/07/17 16:44:14;;;;;;;12.40;11.90;;;29.20;35.00;;;;;;4966190;28;20452;-69
2022/07/17 16:46:41;;;;;;;13.03;12.37;;;29.10;35.20;;;;;;4973373;28;20458;-68
2022/07/17 16:49:08;;;;;;;11.97;11.47;;;29.10;35.40;;;;;;4972867;28;20493;-68
2022/07/17 16:51:35;;;;;;;13.10;12.30;;;29.10;35.90;;;;;;4973050;28;20483;-69
2022/07/17 16:54:02;;;;;;;12.77;12.07;;;29.10;36.10;;;;;;4972351;28;20546;-69
2022/07/17 16:56:28;;;;;;;12.70;12.20;;;29.10;36.20;;;;;;4971921;28;20462;-69
2022/07/17 16:58:56;;;;;;;12.70;12.30;;;29.10;36.40;;;;;;4963800;28;20460;-68
2022/07/17 17:01:23;;;;;;;12.40;11.70;;;29.10;37.00;;;;;;4962483;28;20492;-68
2022/07/17 17:03:50;;;;;;;11.90;11.40;;;29.10;36.60;;;;;;4964365;28;20452;-69
2022/07/17 17:06:17;;;;;;;11.83;11.43;;;29.10;36.30;;;;;;4963319;28;21025;-69
2022/07/17 17:08:44;;;;;;;11.83;11.33;;;29.10;36.00;;;;;;4962221;28;20815;-69
2022/07/17 17:11:11;;;;;;;10.10;9.70;;;29.10;35.80;;;;;;4965016;28;20891;-69
2022/07/17 17:13:38;;;;;;;12.00;11.60;;;29.00;35.90;;;;;;4963086;28;20452;-68
2022/07/17 17:16:06;;;;;;;11.43;11.03;;;29.00;35.90;;;;;;4963818;28;20459;-69
2022/07/17 17:18:33;;;;;;;12.77;12.27;;;28.90;36.00;;;;;;4962216;28;20558;-69
2022/07/17 17:21:00;;;;;;;11.93;11.53;;;28.80;35.90;;;;;;4962478;28;20440;-68
2022/07/17 17:23:27;;;;;;;11.53;10.93;;;28.70;35.60;;;;;;4964027;28;20448;-69
2022/07/17 17:25:53;;;;;;;12.70;12.20;;;28.70;36.00;;;;;;4956378;28;20464;-70
2022/07/17 17:28:20;;;;;;;11.77;11.27;;;28.60;35.90;;;;;;4953668;29;20480;-69
2022/07/17 17:30:48;;;;;;;10.77;10.37;;;28.60;36.50;;;;;;4953646;29;20847;-70
2022/07/17 17:33:16;;;;;;;12.53;12.13;;;28.50;36.10;;;;;;4953474;29;20449;-69
2022/07/17 17:35:42;;;;;;;11.53;11.13;;;28.50;36.40;;;;;;4953990;28;20449;-68
2022/07/17 17:38:09;;;;;;;12.20;11.80;;;28.50;36.30;;;;;;4960709;28;20452;-69
2022/07/17 17:40:36;;;;;;;13.00;12.50;;;28.40;36.40;;;;;;4962945;28;20452;-69
2022/07/17 17:43:03;;;;;;;12.50;11.80;;;28.40;36.10;;;;;;4963085;28;20943;-69
2022/07/17 17:45:29;;;;;;;12.70;12.30;;;28.30;36.50;;;;;;4959516;28;20472;-67
2022/07/17 17:48:00;;;;;;;10.53;9.93;;;28.30;36.30;;;;;;4961649;28;20446;-69
2022/07/17 17:50:28;;;;;;;10.53;10.13;;;28.30;36.40;;;;;;4963701;28;20480;-68
2022/07/17 17:52:56;;;;;;;11.40;11.00;;;28.30;36.40;;;;;;4962961;28;20935;-70
2022/07/17 17:55:25;;;;;;;11.57;11.10;;;28.20;36.40;;;;;;4961268;28;20448;-70
2022/07/17 17:57:53;;;;;;;12.60;12.13;;;28.30;36.50;;;;;;4962284;28;20930;-69
2022/07/17 18:00:20;;;;;;;11.63;11.10;;;28.20;36.50;;;;;;4963183;28;20475;-68
2022/07/17 18:02:48;;;;;;;12.07;11.57;;;28.20;36.40;;;;;;4961628;28;20472;-68
2022/07/17 18:05:15;;;;;;;12.63;11.70;;;28.10;36.90;;;;;;4961183;28;20476;-67
2022/07/17 18:07:43;;;;;;;11.27;10.67;;;28.00;36.90;;;;;;4955629;28;20452;-68
2022/07/17 18:10:14;;;;;;;11.80;11.30;;;28.00;37.00;;;;;;4962940;28;20503;-70
2022/07/17 18:12:42;;;;;;;11.20;10.80;;;28.00;36.80;;;;;;4963084;28;20495;-68
2022/07/17 18:15:10;;;;;;;11.67;11.13;;;27.90;36.90;;;;;;4962082;28;20451;-70
2022/07/17 18:17:38;;;;;;;11.03;10.63;;;27.80;37.30;;;;;;4962990;28;20448;-68
2022/07/17 18:20:06;;;;;;;11.40;10.83;;;27.70;37.50;;;;;;4961834;28;20990;-70
2022/07/17 18:22:33;;;;;;;11.40;10.87;;;27.70;37.30;;;;;;4963095;28;20444;-69
2022/07/17 18:25:01;;;;;;;11.60;11.10;;;27.60;37.40;;;;;;4962032;28;20452;-69
2022/07/17 18:27:28;;;;;;;12.60;12.00;;;27.60;37.80;;;;;;4960682;28;20855;-69
2022/07/17 18:29:54;;;;;;;11.23;10.83;;;27.50;37.60;;;;;;4963518;28;20477;-68
2022/07/17 18:32:21;;;;;;;11.67;11.07;;;27.50;37.70;;;;;;4961841;28;20485;-67
2022/07/17 18:34:48;;;;;;;11.33;10.80;;;27.40;38.10;;;;;;4963043;28;20780;-69
2022/07/17 18:37:14;;;;;;;10.83;10.33;;;27.30;38.20;;;;;;4960814;28;20444;-69